createdAt,value
2022-11-07T00:00:43.799Z,60.53
2022-11-07T00:03:15.727Z,60.85
2022-11-07T00:05:43.946Z,60.53
2022-11-07T00:08:11.815Z,60.54
2022-11-07T00:10:39.732Z,60.90
2022-11-07T00:13:07.663Z,60.53
2022-11-07T00:15:35.551Z,60.46
2022-11-07T00:18:03.466Z,60.84
2022-11-07T00:20:32.747Z,60.57
2022-11-07T00:23:00.763Z,60.42
2022-11-07T00:25:28.622Z,60.56
2022-11-07T00:27:56.471Z,60.51
2022-11-07T00:30:24.796Z,60.77
2022-11-07T00:32:56.391Z,60.58
2022-11-07T00:35:27.857Z,60.41
2022-11-07T00:37:57.159Z,60.36
2022-11-07T00:40:25.048Z,60.75
2022-11-07T00:42:52.919Z,60.76
2022-11-07T00:45:20.866Z,60.62
2022-11-07T00:47:48.715Z,60.77
2022-11-07T00:50:16.643Z,60.81
2022-11-07T00:52:44.523Z,60.80
2022-11-07T00:55:13.797Z,60.90
2022-11-07T00:57:41.647Z,60.43
2022-11-07T01:00:11.109Z,60.51
2022-11-07T01:02:39.125Z,60.60
2022-11-07T01:05:15.386Z,60.66
2022-11-07T01:07:43.245Z,60.80
2022-11-07T01:10:11.128Z,60.64
2022-11-07T01:12:40.375Z,60.91
2022-11-07T01:15:09.150Z,61.07
2022-11-07T01:17:37.006Z,60.82
2022-11-07T01:20:05.573Z,60.81
2022-11-07T01:22:33.627Z,60.61
2022-11-07T01:25:01.475Z,60.66
2022-11-07T01:27:29.348Z,60.78
2022-11-07T01:29:58.597Z,60.75
2022-11-07T01:32:26.504Z,60.78
2022-11-07T01:34:54.384Z,60.64
2022-11-07T01:37:22.256Z,60.46
2022-11-07T01:39:50.134Z,60.31
2022-11-07T01:42:18.024Z,60.54
2022-11-07T01:44:55.420Z,60.48
2022-11-07T01:47:25.475Z,60.73
2022-11-07T01:49:53.508Z,60.56
2022-11-07T01:52:22.663Z,60.42
2022-11-07T01:54:52.243Z,60.47
2022-11-07T01:57:21.519Z,60.57
2022-11-07T01:59:49.576Z,60.46
2022-11-07T02:02:17.525Z,60.45
2022-11-07T02:04:46.900Z,60.51
2022-11-07T02:07:16.810Z,60.32
2022-11-07T02:09:44.778Z,60.80
2022-11-07T02:12:12.686Z,60.65
2022-11-07T02:14:40.567Z,60.51
2022-11-07T02:17:08.522Z,60.76
2022-11-07T02:19:37.222Z,60.72
2022-11-07T02:22:10.010Z,61.21
2022-11-07T02:24:39.389Z,61.15
2022-11-07T02:27:08.560Z,60.98
2022-11-07T02:29:36.667Z,61.18
2022-11-07T02:32:04.779Z,61.32
2022-11-07T02:34:32.707Z,61.19
2022-11-07T02:37:00.582Z,60.92
2022-11-07T02:39:28.447Z,61.29
2022-11-07T02:41:57.760Z,61.14
2022-11-07T02:44:25.611Z,60.94
2022-11-07T02:46:53.482Z,61.00
2022-11-07T02:49:21.383Z,61.10
2022-11-07T02:51:49.296Z,60.84
2022-11-07T02:54:17.191Z,61.10
2022-11-07T02:56:45.066Z,61.19
2022-11-07T02:59:14.326Z,61.36
2022-11-07T03:01:42.321Z,61.17
2022-11-07T03:04:10.299Z,61.37
2022-11-07T03:06:38.216Z,61.21
2022-11-07T03:09:06.085Z,61.60
2022-11-07T03:11:33.976Z,61.17
2022-11-07T03:14:01.842Z,61.53
2022-11-07T03:16:31.266Z,61.15
2022-11-07T03:18:59.150Z,61.19
2022-11-07T03:21:27.040Z,61.44
2022-11-07T03:23:54.903Z,61.69
2022-11-07T03:26:22.806Z,61.60
2022-11-07T03:28:50.775Z,61.42
2022-11-07T03:31:18.636Z,61.40
2022-11-07T03:33:47.850Z,61.50
2022-11-07T03:36:15.763Z,61.39
2022-11-07T03:38:43.664Z,61.71
2022-11-07T03:41:17.081Z,61.85
2022-11-07T03:43:45.559Z,61.33
2022-11-07T03:46:13.445Z,61.84
2022-11-07T03:48:41.317Z,61.63
2022-11-07T03:51:10.882Z,61.44
2022-11-07T03:53:38.779Z,61.82
2022-11-07T03:56:07.489Z,61.86
2022-11-07T03:58:35.437Z,61.77
2022-11-07T04:01:03.296Z,61.43
2022-11-07T04:03:31.314Z,61.69
2022-11-07T04:05:59.245Z,61.68
2022-11-07T04:08:28.530Z,61.45
2022-11-07T04:10:56.411Z,61.43
2022-11-07T04:13:41.869Z,61.61
2022-11-07T04:16:23.918Z,61.59
2022-11-07T04:18:51.808Z,61.57
2022-11-07T04:21:19.684Z,61.48
2022-11-07T04:23:48.992Z,61.60
2022-11-07T04:26:34.339Z,61.23
2022-11-07T04:29:02.220Z,61.29
2022-11-07T04:31:30.075Z,61.52
2022-11-07T04:33:57.958Z,61.15
2022-11-07T04:36:25.887Z,61.16
2022-11-07T04:38:55.113Z,61.39
2022-11-07T04:41:23.783Z,61.42
2022-11-07T04:43:51.987Z,61.07
2022-11-07T04:46:20.218Z,61.45
2022-11-07T04:48:48.131Z,61.08
2022-11-07T04:51:16.279Z,61.27
2022-11-07T04:53:44.150Z,61.11
2022-11-07T04:56:13.373Z,61.26
2022-11-07T04:58:41.264Z,60.99
2022-11-07T05:01:09.158Z,60.99
2022-11-07T05:03:41.516Z,60.87
2022-11-07T05:06:11.604Z,60.95
2022-11-07T05:08:39.467Z,61.13
2022-11-07T05:11:07.343Z,60.98
2022-11-07T05:13:36.659Z,61.05
2022-11-07T05:16:04.794Z,61.14
2022-11-07T05:18:32.694Z,61.32
2022-11-07T05:21:00.587Z,60.96
2022-11-07T05:23:28.587Z,60.93
2022-11-07T05:25:56.907Z,61.21
2022-11-07T05:28:35.234Z,61.03
2022-11-07T05:31:06.746Z,60.77
2022-11-07T05:33:34.708Z,61.00
2022-11-07T05:36:20.767Z,60.91
2022-11-07T05:38:49.664Z,60.64
2022-11-07T05:41:18.056Z,60.69
2022-11-07T05:43:45.985Z,60.65
2022-11-07T05:46:15.299Z,60.64
2022-11-07T05:48:43.171Z,60.99
2022-11-07T05:51:11.069Z,60.65
2022-11-07T05:53:39.004Z,60.68
2022-11-07T05:56:07.530Z,60.65
2022-11-07T05:58:35.454Z,60.54
2022-11-07T06:01:03.461Z,60.84
2022-11-07T06:03:32.856Z,60.87
2022-11-07T06:06:00.850Z,60.81
2022-11-07T06:08:28.776Z,60.60
2022-11-07T06:10:56.662Z,60.24
2022-11-07T06:13:24.548Z,60.24
2022-11-07T06:15:52.455Z,60.25
2022-11-07T06:18:21.458Z,60.37
2022-11-07T06:20:50.680Z,60.18
2022-11-07T06:23:20.073Z,60.34
2022-11-07T06:25:48.175Z,60.57
2022-11-07T06:28:16.086Z,60.27
2022-11-07T06:30:43.999Z,60.54
2022-11-07T06:33:13.235Z,60.32
2022-11-07T06:35:41.450Z,60.43
2022-11-07T06:38:11.406Z,60.28
2022-11-07T06:40:39.394Z,60.55
2022-11-07T06:43:07.860Z,60.26
2022-11-07T06:45:35.947Z,60.27
2022-11-07T06:48:03.838Z,60.13
2022-11-07T06:50:31.778Z,60.08
2022-11-07T06:53:02.888Z,60.18
2022-11-07T06:55:32.133Z,60.24
2022-11-07T06:58:00.737Z,60.13
2022-11-07T07:00:28.865Z,60.23
2022-11-07T07:02:58.846Z,60.36
2022-11-07T07:05:27.036Z,60.24
2022-11-07T07:07:55.193Z,60.37
2022-11-07T07:10:24.841Z,60.84
2022-11-07T07:12:54.214Z,60.63
2022-11-07T07:15:22.134Z,60.84
2022-11-07T07:17:50.004Z,60.70
2022-11-07T07:20:17.925Z,60.96
2022-11-07T07:22:46.759Z,60.88
2022-11-07T07:25:17.181Z,60.50
2022-11-07T07:27:45.024Z,60.64
2022-11-07T07:30:15.135Z,61.07
2022-11-07T07:32:43.037Z,60.72
2022-11-07T07:35:10.989Z,60.76
2022-11-07T07:37:38.910Z,61.14
2022-11-07T07:40:07.895Z,61.28
2022-11-07T07:42:35.815Z,61.02
2022-11-07T07:45:03.798Z,61.16
2022-11-07T07:47:33.105Z,61.25
2022-11-07T07:50:01.017Z,61.12
2022-11-07T07:52:28.888Z,61.21
2022-11-07T07:54:57.003Z,61.28
2022-11-07T07:57:24.916Z,61.23
2022-11-07T07:59:52.886Z,61.30
2022-11-07T08:02:20.982Z,61.53
2022-11-07T08:04:50.284Z,61.48
2022-11-07T08:07:18.212Z,61.55
2022-11-07T08:09:46.241Z,61.85
2022-11-07T08:12:14.190Z,61.66
2022-11-07T08:14:42.529Z,61.61
2022-11-07T08:17:17.141Z,61.76
2022-11-07T08:19:48.337Z,61.55
2022-11-07T08:22:23.781Z,61.68
2022-11-07T08:24:52.271Z,61.49
2022-11-07T08:27:20.135Z,61.84
2022-11-07T08:29:49.291Z,61.55
2022-11-07T08:32:17.210Z,61.89
2022-11-07T08:34:45.085Z,61.49
2022-11-07T08:37:13.063Z,61.67
2022-11-07T08:39:42.356Z,61.38
2022-11-07T08:42:10.272Z,61.77
2022-11-07T08:44:38.204Z,61.66
2022-11-07T08:47:08.641Z,61.35
2022-11-07T08:49:36.674Z,61.62
2022-11-07T08:52:04.921Z,61.49
2022-11-07T08:54:33.698Z,61.38
2022-11-07T08:57:03.178Z,61.49
2022-11-07T08:59:31.140Z,61.54
2022-11-07T09:04:47.000Z,61.37
2022-11-07T09:07:14.955Z,61.48
2022-11-07T09:09:42.800Z,61.37
2022-11-07T09:12:12.016Z,61.36
2022-11-07T09:14:40.380Z,60.91
2022-11-07T09:17:08.334Z,60.88
2022-11-07T09:19:36.197Z,60.96
2022-11-07T09:22:04.071Z,60.80
2022-11-07T09:24:31.990Z,60.80
2022-11-07T09:26:59.877Z,60.70
2022-11-07T09:29:29.116Z,60.87
2022-11-07T09:31:57.059Z,60.72
2022-11-07T09:34:25.891Z,60.87
2022-11-07T09:36:53.756Z,60.44
2022-11-07T09:39:21.723Z,60.76
2022-11-07T09:41:55.585Z,60.67
2022-11-07T09:44:47.404Z,60.12
2022-11-07T09:47:20.775Z,60.44
2022-11-07T09:49:49.830Z,60.02
2022-11-07T09:52:20.287Z,59.85
2022-11-07T09:54:51.622Z,59.75
2022-11-07T09:57:20.211Z,59.39
2022-11-07T09:59:51.757Z,59.50
2022-11-07T10:02:20.543Z,59.43
2022-11-07T10:04:48.885Z,59.39
2022-11-07T10:07:21.610Z,59.57
2022-11-07T10:09:51.571Z,59.37
2022-11-07T10:12:27.810Z,59.39
2022-11-07T10:15:00.633Z,58.67
2022-11-07T10:17:32.955Z,58.93
2022-11-07T10:20:09.303Z,58.67
2022-11-07T10:22:46.995Z,58.56
2022-11-07T10:25:20.751Z,58.62
2022-11-07T10:27:52.017Z,58.30
2022-11-07T10:30:22.013Z,58.04
2022-11-07T10:32:55.845Z,57.99
2022-11-07T10:35:26.779Z,57.69
2022-11-07T10:37:58.039Z,57.95
2022-11-07T10:40:28.250Z,57.60
2022-11-07T10:42:56.868Z,57.46
2022-11-07T10:45:26.216Z,57.65
2022-11-07T10:47:58.413Z,57.48
2022-11-07T10:50:26.788Z,57.97
2022-11-07T10:52:55.696Z,57.97
2022-11-07T10:55:23.644Z,58.46
2022-11-07T10:57:54.225Z,58.89
2022-11-07T11:00:23.798Z,59.27
2022-11-07T11:02:53.358Z,59.50
2022-11-07T11:05:23.620Z,60.03
2022-11-07T11:07:51.641Z,60.17
2022-11-07T11:10:21.048Z,60.68
2022-11-07T11:12:49.324Z,61.00
2022-11-07T11:15:19.260Z,61.10
2022-11-07T11:17:47.191Z,61.55
2022-11-07T11:20:31.151Z,61.55
2022-11-07T11:22:59.716Z,61.75
2022-11-07T11:25:27.705Z,61.84
2022-11-07T11:27:58.020Z,61.76
2022-11-07T11:30:25.993Z,61.81
2022-11-07T11:32:54.608Z,61.88
2022-11-07T11:35:38.879Z,62.20
2022-11-07T11:38:12.803Z,62.22
2022-11-07T11:40:41.523Z,62.07
2022-11-07T11:43:18.365Z,62.46
2022-11-07T11:45:55.847Z,62.33
2022-11-07T11:48:25.631Z,62.30
2022-11-07T11:50:57.262Z,62.64
2022-11-07T11:53:25.359Z,62.40
2022-11-07T11:55:57.324Z,62.77
2022-11-07T11:58:32.865Z,62.79
2022-11-07T12:01:02.900Z,62.50
2022-11-07T12:03:45.211Z,62.21
2022-11-07T12:06:16.890Z,62.40
2022-11-07T12:09:17.119Z,61.92
2022-11-07T12:11:55.948Z,62.11
2022-11-07T12:14:43.195Z,62.46
2022-11-07T12:17:12.540Z,61.86
2022-11-07T12:19:44.025Z,61.84
2022-11-07T12:22:15.853Z,61.97
2022-11-07T12:24:46.945Z,61.84
2022-11-07T12:27:22.728Z,61.78
2022-11-07T12:30:04.669Z,61.77
2022-11-07T12:32:36.836Z,61.53
2022-11-07T12:35:12.741Z,61.35
2022-11-07T12:37:52.572Z,61.24
2022-11-07T12:40:30.231Z,61.15
2022-11-07T12:43:07.354Z,61.00
2022-11-07T12:45:44.427Z,60.62
2022-11-07T12:48:22.219Z,60.44
2022-11-07T12:50:52.725Z,60.54
2022-11-07T12:53:28.542Z,60.43
2022-11-07T12:55:58.555Z,60.12
2022-11-07T12:58:29.059Z,59.83
2022-11-07T13:00:56.959Z,60.10
2022-11-07T13:03:54.599Z,59.87
2022-11-07T13:06:25.183Z,59.88
2022-11-07T13:08:58.583Z,59.69
2022-11-07T13:11:30.206Z,59.40
2022-11-07T13:14:06.368Z,59.29
2022-11-07T13:16:35.759Z,58.82
2022-11-07T13:19:10.068Z,59.02
2022-11-07T13:21:42.447Z,58.47
2022-11-07T13:24:20.122Z,58.74
2022-11-07T13:26:48.355Z,58.46
2022-11-07T13:29:24.901Z,58.17
2022-11-07T13:32:05.552Z,58.44
2022-11-07T13:34:40.866Z,57.98
2022-11-07T13:37:10.054Z,57.62
2022-11-07T13:39:39.301Z,57.29
2022-11-07T13:42:07.219Z,57.18
2022-11-07T13:44:36.852Z,56.65
2022-11-07T13:47:05.768Z,56.84
2022-11-07T13:49:36.829Z,56.74
2022-11-07T13:52:10.264Z,56.21
2022-11-07T13:54:41.455Z,56.49
2022-11-07T13:57:12.578Z,56.03
2022-11-07T13:59:47.254Z,56.14
2022-11-07T14:02:21.509Z,56.08
2022-11-07T14:05:15.224Z,55.98
2022-11-07T14:07:43.149Z,55.47
2022-11-07T14:10:17.974Z,55.40
2022-11-07T14:12:45.931Z,55.37
2022-11-07T14:15:15.281Z,55.21
2022-11-07T14:17:43.352Z,55.18
2022-11-07T14:20:17.015Z,55.03
2022-11-07T14:22:53.118Z,54.82
2022-11-07T14:25:25.372Z,54.70
2022-11-07T14:27:53.319Z,54.62
2022-11-07T14:30:21.775Z,54.39
2022-11-07T14:32:50.909Z,54.28
2022-11-07T14:35:23.292Z,54.21
2022-11-07T14:37:52.607Z,54.25
2022-11-07T14:40:20.553Z,53.80
2022-11-07T14:42:49.818Z,53.77
2022-11-07T14:45:39.241Z,53.56
2022-11-07T14:48:07.360Z,53.36
2022-11-07T14:50:35.257Z,53.19
2022-11-07T14:53:04.111Z,53.41
2022-11-07T14:55:32.772Z,53.25
2022-11-07T14:58:02.776Z,53.70
2022-11-07T15:00:30.849Z,53.18
2022-11-07T15:02:59.366Z,52.89
2022-11-07T15:05:28.663Z,53.20
2022-11-07T15:07:57.256Z,53.41
2022-11-07T15:10:27.835Z,53.53
2022-11-07T15:12:56.736Z,53.71
2022-11-07T15:15:26.447Z,53.57
2022-11-07T15:17:59.017Z,53.71
2022-11-07T15:20:34.310Z,54.01
2022-11-07T15:23:03.168Z,54.14
2022-11-07T15:25:34.497Z,54.34
2022-11-07T15:28:13.863Z,54.68
2022-11-07T15:30:44.201Z,54.79
2022-11-07T15:33:13.008Z,55.34
2022-11-07T15:35:44.425Z,55.50
2022-11-07T15:38:18.315Z,56.04
2022-11-07T15:40:46.624Z,56.65
2022-11-07T15:43:14.546Z,56.94
2022-11-07T15:45:44.045Z,57.52
2022-11-07T15:48:15.991Z,57.62
2022-11-07T15:50:44.642Z,57.75
2022-11-07T15:53:17.018Z,57.81
2022-11-07T15:55:44.972Z,57.83
2022-11-07T15:58:15.053Z,57.83
2022-11-07T16:00:44.594Z,57.97
2022-11-07T16:03:15.423Z,57.65
2022-11-07T16:05:45.491Z,57.68
2022-11-07T16:08:15.508Z,57.34
2022-11-07T16:10:44.931Z,57.44
2022-11-07T16:13:12.836Z,57.11
2022-11-07T16:15:40.752Z,57.13
2022-11-07T16:18:16.138Z,57.06
2022-11-07T16:20:44.390Z,57.13
2022-11-07T16:23:12.484Z,56.93
2022-11-07T16:25:41.000Z,56.64
2022-11-07T16:28:19.190Z,56.98
2022-11-07T16:30:47.287Z,56.92
2022-11-07T16:33:16.661Z,56.72
2022-11-07T16:35:44.646Z,56.55
2022-11-07T16:38:14.138Z,56.98
2022-11-07T16:40:42.409Z,56.85
2022-11-07T16:43:10.310Z,56.53
2022-11-07T16:45:38.635Z,57.06
2022-11-07T16:48:06.934Z,56.95
2022-11-07T16:50:36.177Z,56.76
2022-11-07T16:53:04.582Z,57.00
2022-11-07T16:55:32.651Z,56.98
2022-11-07T16:58:00.643Z,57.42
2022-11-07T17:00:28.515Z,57.25
2022-11-07T17:03:07.128Z,57.26
2022-11-07T17:05:36.411Z,57.37
2022-11-07T17:08:05.321Z,57.49
2022-11-07T17:10:33.233Z,57.39
2022-11-07T17:13:01.100Z,57.41
2022-11-07T17:15:29.001Z,57.83
2022-11-07T17:18:00.598Z,57.59
2022-11-07T17:20:50.547Z,57.46
2022-11-07T17:23:25.248Z,57.26
2022-11-07T17:25:57.086Z,57.12
2022-11-07T17:28:24.996Z,57.25
2022-11-07T17:30:53.080Z,57.05
2022-11-07T17:33:21.035Z,56.74
2022-11-07T17:35:48.929Z,56.77
2022-11-07T17:38:17.674Z,56.41
2022-11-07T17:40:47.273Z,56.10
2022-11-07T17:43:15.167Z,55.98
2022-11-07T17:45:43.050Z,55.95
2022-11-07T17:48:11.103Z,55.79
2022-11-07T17:50:39.831Z,55.90
2022-11-07T17:53:07.696Z,55.80
2022-11-07T17:55:35.772Z,56.03
2022-11-07T17:58:05.053Z,55.86
2022-11-07T18:00:32.899Z,56.38
2022-11-07T18:03:00.943Z,56.02
2022-11-07T18:05:33.432Z,56.20
2022-11-07T18:08:02.587Z,56.06
2022-11-07T18:10:30.534Z,56.41
2022-11-07T18:12:58.810Z,56.26
2022-11-07T18:15:28.306Z,56.10
2022-11-07T18:17:56.229Z,56.09
2022-11-07T18:20:24.191Z,56.09
2022-11-07T18:22:52.127Z,55.92
2022-11-07T18:25:19.983Z,55.56
2022-11-07T18:27:47.911Z,55.46
2022-11-07T18:30:15.868Z,55.71
2022-11-07T18:32:45.349Z,55.54
2022-11-07T18:35:13.290Z,55.48
2022-11-07T18:37:41.362Z,55.31
2022-11-07T18:40:11.628Z,55.17
2022-11-07T18:42:39.546Z,55.46
2022-11-07T18:45:08.818Z,55.24
2022-11-07T18:47:36.941Z,55.67
2022-11-07T18:50:11.209Z,55.76
2022-11-07T18:52:39.168Z,56.12
2022-11-07T18:55:09.580Z,56.00
2022-11-07T18:57:39.235Z,55.97
2022-11-07T19:00:13.439Z,56.03
2022-11-07T19:02:44.901Z,55.93
2022-11-07T19:05:14.217Z,55.65
2022-11-07T19:07:44.828Z,55.45
2022-11-07T19:10:13.029Z,55.44
2022-11-07T19:12:40.964Z,55.33
2022-11-07T19:15:10.135Z,55.26
2022-11-07T19:17:41.921Z,54.94
2022-11-07T19:20:11.636Z,54.81
2022-11-07T19:22:41.197Z,54.87
2022-11-07T19:25:10.219Z,54.71
2022-11-07T19:27:38.279Z,54.51
2022-11-07T19:30:08.320Z,54.45
2022-11-07T19:32:36.439Z,54.72
2022-11-07T19:35:07.036Z,54.61
2022-11-07T19:37:35.127Z,54.54
2022-11-07T19:40:04.757Z,54.26
2022-11-07T19:42:32.648Z,54.47
2022-11-07T19:45:01.647Z,54.30
2022-11-07T19:47:30.819Z,54.38
2022-11-07T19:49:58.733Z,54.18
2022-11-07T19:52:26.818Z,54.22
2022-11-07T19:54:55.085Z,54.23
2022-11-07T19:57:24.350Z,54.36
2022-11-07T19:59:52.920Z,54.20
2022-11-07T20:02:41.516Z,54.26
2022-11-07T20:05:09.538Z,54.40
2022-11-07T20:07:37.447Z,54.38
2022-11-07T20:10:05.924Z,54.29
2022-11-07T20:12:35.707Z,54.35
2022-11-07T20:15:03.620Z,54.48
2022-11-07T20:17:31.521Z,54.12
2022-11-07T20:20:04.396Z,54.36
2022-11-07T20:22:34.312Z,54.53
2022-11-07T20:25:02.404Z,54.48
2022-11-07T20:27:30.336Z,54.29
2022-11-07T20:29:59.644Z,54.19
2022-11-07T20:32:27.779Z,54.53
2022-11-07T20:34:55.801Z,54.86
2022-11-07T20:37:23.927Z,55.04
2022-11-07T20:39:52.046Z,55.50
2022-11-07T20:42:19.986Z,56.08
2022-11-07T20:44:48.106Z,56.25
2022-11-07T20:47:17.406Z,57.20
2022-11-07T20:49:45.361Z,57.43
2022-11-07T20:52:13.377Z,58.05
2022-11-07T20:54:41.372Z,57.93
2022-11-07T20:57:09.567Z,58.35
2022-11-07T20:59:37.707Z,58.31
2022-11-07T21:02:05.653Z,58.62
2022-11-07T21:04:49.931Z,58.48
2022-11-07T21:07:23.761Z,58.55
2022-11-07T21:09:51.888Z,58.80
2022-11-07T21:12:19.888Z,58.62
2022-11-07T21:14:47.764Z,58.54
2022-11-07T21:17:16.128Z,58.91
2022-11-07T21:19:45.439Z,59.05
2022-11-07T21:22:13.304Z,59.02
2022-11-07T21:24:41.243Z,59.31
2022-11-07T21:27:09.131Z,59.19
2022-11-07T21:29:37.024Z,59.45
2022-11-07T21:32:06.816Z,59.44
2022-11-07T21:34:37.205Z,59.98
2022-11-07T21:37:09.089Z,60.05
2022-11-07T21:39:37.761Z,60.42
2022-11-07T21:42:05.829Z,61.05
2022-11-07T21:44:33.776Z,61.37
2022-11-07T21:47:01.732Z,61.19
2022-11-07T21:49:29.723Z,61.64
2022-11-07T21:51:57.894Z,61.65
2022-11-07T21:54:27.196Z,61.93
2022-11-07T21:56:55.214Z,62.35
2022-11-07T21:59:23.455Z,62.63
2022-11-07T22:01:51.515Z,62.71
2022-11-07T22:04:19.519Z,62.82
2022-11-07T22:06:47.495Z,62.29
2022-11-07T22:09:16.196Z,62.56
2022-11-07T22:11:45.477Z,62.40
2022-11-07T22:14:14.755Z,62.68
2022-11-07T22:16:42.834Z,62.38
2022-11-07T22:19:12.738Z,62.51
2022-11-07T22:21:41.175Z,62.83
2022-11-07T22:24:09.365Z,62.68
2022-11-07T22:26:37.439Z,62.12
2022-11-07T22:29:06.718Z,61.21
2022-11-07T22:31:34.640Z,60.45
2022-11-07T22:34:02.599Z,60.92
2022-11-07T22:36:30.666Z,60.73
2022-11-07T22:38:58.646Z,61.03
2022-11-07T22:41:27.381Z,61.15
2022-11-07T22:43:55.338Z,61.37
2022-11-07T22:46:25.641Z,61.44
2022-11-07T22:48:53.540Z,61.35
2022-11-07T22:51:23.002Z,61.39
2022-11-07T22:53:56.458Z,61.81
2022-11-07T22:56:24.564Z,61.77
2022-11-07T22:58:52.417Z,61.89
2022-11-07T23:01:21.442Z,62.05
2022-11-07T23:03:50.826Z,61.91
2022-11-07T23:06:18.895Z,61.87
2022-11-07T23:08:46.791Z,62.21
2022-11-07T23:14:04.791Z,62.00
2022-11-07T23:16:33.854Z,61.89
2022-11-07T23:19:03.827Z,61.94
2022-11-07T23:21:31.781Z,61.97
2022-11-07T23:24:00.606Z,61.80
2022-11-07T23:26:33.913Z,61.89
2022-11-07T23:29:07.537Z,62.17
2022-11-07T23:31:38.818Z,62.22
2022-11-07T23:34:08.052Z,61.92
2022-11-07T23:36:36.044Z,61.65
2022-11-07T23:39:05.837Z,61.94
2022-11-07T23:41:33.738Z,61.67
2022-11-07T23:44:01.803Z,61.54
2022-11-07T23:46:47.075Z,61.63
2022-11-07T23:49:33.579Z,61.59
2022-11-07T23:52:01.522Z,61.44
2022-11-07T23:54:46.663Z,61.77
2022-11-07T23:57:14.543Z,61.51
2022-11-07T23:59:59.933Z,61.39
